Emden — 3ERP5 — position and weather

sailwx.info

Track history (hours):
 
Tides and Currents Weather Stations Pressure Air Temp Water Temp Dewpoint Dewpoint Depression Visibility Wind Speed Wind Dir Waves Ship Positions

Emden

Last reported at 2014-Nov-24 05:09 UTC. Time now 2014-Nov-24 12:33 UTC.
Position N 38°27' W 009°30'.

Length 177 m; draft 7.9 m.

Type: Ship. MMSI: 355051000.

Date/timePositionNaut miles runAvg speedWind from/ knotsBaromVisibWave heightAir tempDewpointWater temp
2014-Nov-24 05:09N 38°27' W 009°30'711.9
2014-Nov-24 04:33N 38°23' W 009°23'1211.9
2014-Nov-24 03:33N 38°20' W 009°08'1111.2
2014-Nov-24 02:33N 38°28' W 008°58'5 5.0
2014-Nov-24 01:31N 38°31' W 008°52'0 0.0
2014-Nov-24 00:28N 38°31' W 008°52'0 0.0
2014-Nov-23 23:31N 38°31' W 008°52'0 0.0
2014-Nov-23 22:19N 38°31' W 008°52'0 0.0
2014-Nov-23 21:31N 38°31' W 008°52'0 0.0
2014-Nov-23 20:13N 38°31' W 008°52'0 0.0
2014-Nov-23 19:31N 38°31' W 008°52'0 0.0
2014-Nov-23 18:31N 38°31' W 008°52'0 0.0
2014-Nov-23 17:31N 38°31' W 008°52'0 0.0
2014-Nov-23 16:31N 38°31' W 008°52'0 0.0
2014-Nov-23 15:25N 38°31' W 008°52'0 0.0
2014-Nov-23 14:31N 38°31' W 008°52'5 5.0
2014-Nov-23 13:33N 38°28' W 008°57'1212.2
2014-Nov-23 12:33N 38°22' W 009°10'1414.2
2014-Nov-23 11:33N 38°24' W 009°28'  
2014-Nov-19 05:19N 51°52' W 005°55'911.4
2014-Nov-19 04:33N 52°01' W 005°54'1211.8
2014-Nov-19 03:33N 52°12' W 005°54'1212.4
2014-Nov-19 02:34N 52°25' W 005°54'1313.2
2014-Nov-19 01:33N 52°38' W 005°53'2 0.1
2014-Nov-18 03:19N 52°37' W 005°51'1216.1
2014-Nov-18 02:33N 52°24' W 005°49'1615.5
2014-Nov-18 01:33N 52°09' W 005°47'157 9.2
2014-Nov-17 08:24N 49°58' W 003°28'1214.1
2014-Nov-17 07:33N 49°59' W 003°10'1414.1
2014-Nov-17 06:34N 50°02' W 002°48'5712.9
2014-Nov-17 02:10N 50°17' W 001°23'1213.3
2014-Nov-17 01:15N 50°20' W 001°04'4115.0
2014-Nov-16 22:33N 50°31' W 000°03'1515.5
2014-Nov-16 21:33N 50°35' E 000°20'1514.8
2014-Nov-16 20:33N 50°42' E 000°41'1414.1
2014-Nov-16 19:33N 50°50' E 000°60'1413.5
2014-Nov-16 18:34N 50°58' E 001°16'1313.2
2014-Nov-16 17:33N 51°07' E 001°32'1312.7
2014-Nov-16 16:34N 51°19' E 001°39'1111.4
2014-Nov-16 15:34N 51°27' E 001°27'1212.2
2014-Nov-16 14:33N 51°29' E 001°08'1212.4
2014-Nov-16 13:33N 51°28' E 000°48'3 2.7
2014-Nov-16 12:32N 51°26' E 000°44'0 0.0
2014-Nov-16 11:32N 51°26' E 000°44'0 0.0
2014-Nov-16 10:32N 51°26' E 000°44'0 0.0
2014-Nov-16 09:32N 51°26' E 000°44'0 0.0
2014-Nov-16 08:32N 51°26' E 000°44'0 0.0
2014-Nov-16 07:32N 51°26' E 000°44'0 0.0
2014-Nov-16 06:32N 51°26' E 000°44'0 0.0
2014-Nov-16 05:32N 51°26' E 000°44'0 0.0
2014-Nov-16 04:32N 51°26' E 000°44'0 0.0
2014-Nov-16 03:32N 51°26' E 000°44'0 0.0
2014-Nov-16 02:32N 51°26' E 000°44'0 0.0
2014-Nov-16 01:32N 51°26' E 000°44'2 2.5
2014-Nov-16 00:33N 51°28' E 000°47'1010.2
2014-Nov-15 23:33N 51°30' E 001°04'1111.1
2014-Nov-15 22:33N 51°29' E 001°21'6 5.5
2014-Nov-15 21:33N 51°29' E 001°30'2 2.4
2014-Nov-15 20:31N 51°31' E 001°31'0 0.0
2014-Nov-15 19:31N 51°31' E 001°31'0 0.0
2014-Nov-15 18:31N 51°31' E 001°31'0 0.0
2014-Nov-15 17:31N 51°31' E 001°31'0 0.0
2014-Nov-15 16:31N 51°31' E 001°31'0 0.0
2014-Nov-15 15:31N 51°31' E 001°31'0 0.0
2014-Nov-15 14:31N 51°31' E 001°31'0 0.0
2014-Nov-15 13:31N 51°31' E 001°31'0 0.0
2014-Nov-15 12:33N 51°31' E 001°31'2 1.6
2014-Nov-15 11:33N 51°31' E 001°34'1211.8
2014-Nov-15 10:34N 51°31' E 001°53'1212.0
2014-Nov-15 09:34N 51°39' E 002°07'1312.1
2014-Nov-15 08:28N 51°48' E 002°24'7712.8
2014-Nov-15 02:29N 52°47' E 003°44'1313.8
2014-Nov-15 01:33N 52°57' E 003°58'1313.3
2014-Nov-15 00:33N 53°05' E 004°14'2411.9
2014-Nov-14 22:33N 53°26' E 004°35'1111.5
2014-Nov-14 21:33N 53°31' E 004°52'1212.3
2014-Nov-14 20:33N 53°35' E 005°11'1313.4
2014-Nov-14 19:33N 53°40' E 005°33'1414.0
2014-Nov-14 18:34N 53°44' E 005°55'1313.0
2014-Nov-14 17:33N 53°39' E 006°15'1212.3
2014-Nov-14 16:33N 53°36' E 006°35'1414.3
2014-Nov-14 15:33N 53°27' E 006°54'1010.4
2014-Nov-14 14:33N 53°20' E 007°07'2 0.9
2014-Nov-14 12:33N 53°20' E 007°10'0 0.0
2014-Nov-14 11:30N 53°20' E 007°10'0 0.0
2014-Nov-14 10:33N 53°20' E 007°10'0 0.0
2014-Nov-14 09:33N 53°20' E 007°10'0 0.0
2014-Nov-14 08:33N 53°20' E 007°10'0 0.0
2014-Nov-14 07:33N 53°20' E 007°10'0 0.0
2014-Nov-14 06:33N 53°20' E 007°10'0 0.0
2014-Nov-14 05:33N 53°20' E 007°10'  
Track history (hours):
 
Tides and Currents Weather Stations Pressure Air Temp Water Temp Dewpoint Dewpoint Depression Visibility Wind Speed Wind Dir Waves Ship Positions

Emden

Last reported at 2014-Nov-24 05:09 UTC. Time now 2014-Nov-24 12:33 UTC.
Position N 38°27' W 009°30'.

Length 177 m; draft 7.9 m.

Type: Ship. MMSI: 355051000.

Date/timePositionNaut miles runAvg speedWind from/ knotsBaromVisibWave heightAir tempDewpointWater temp
2014-Nov-24 05:09N 38°27' W 009°30'711.9
2014-Nov-24 04:33N 38°23' W 009°23'1211.9
2014-Nov-24 03:33N 38°20' W 009°08'1111.2
2014-Nov-24 02:33N 38°28' W 008°58'5 5.0
2014-Nov-24 01:31N 38°31' W 008°52'0 0.0
2014-Nov-24 00:28N 38°31' W 008°52'0 0.0
2014-Nov-23 23:31N 38°31' W 008°52'0 0.0
2014-Nov-23 22:19N 38°31' W 008°52'0 0.0
2014-Nov-23 21:31N 38°31' W 008°52'0 0.0
2014-Nov-23 20:13N 38°31' W 008°52'0 0.0
2014-Nov-23 19:31N 38°31' W 008°52'0 0.0
2014-Nov-23 18:31N 38°31' W 008°52'0 0.0
2014-Nov-23 17:31N 38°31' W 008°52'0 0.0
2014-Nov-23 16:31N 38°31' W 008°52'0 0.0
2014-Nov-23 15:25N 38°31' W 008°52'0 0.0
2014-Nov-23 14:31N 38°31' W 008°52'5 5.0
2014-Nov-23 13:33N 38°28' W 008°57'1212.2
2014-Nov-23 12:33N 38°22' W 009°10'1414.2
2014-Nov-23 11:33N 38°24' W 009°28'  
2014-Nov-19 05:19N 51°52' W 005°55'911.4
2014-Nov-19 04:33N 52°01' W 005°54'1211.8
2014-Nov-19 03:33N 52°12' W 005°54'1212.4
2014-Nov-19 02:34N 52°25' W 005°54'1313.2
2014-Nov-19 01:33N 52°38' W 005°53'2 0.1
2014-Nov-18 03:19N 52°37' W 005°51'1216.1
2014-Nov-18 02:33N 52°24' W 005°49'1615.5
2014-Nov-18 01:33N 52°09' W 005°47'157 9.2
2014-Nov-17 08:24N 49°58' W 003°28'1214.1
2014-Nov-17 07:33N 49°59' W 003°10'1414.1
2014-Nov-17 06:34N 50°02' W 002°48'5712.9
2014-Nov-17 02:10N 50°17' W 001°23'1213.3
2014-Nov-17 01:15N 50°20' W 001°04'4115.0
2014-Nov-16 22:33N 50°31' W 000°03'1515.5
2014-Nov-16 21:33N 50°35' E 000°20'1514.8
2014-Nov-16 20:33N 50°42' E 000°41'1414.1
2014-Nov-16 19:33N 50°50' E 000°60'1413.5
2014-Nov-16 18:34N 50°58' E 001°16'1313.2
2014-Nov-16 17:33N 51°07' E 001°32'1312.7
2014-Nov-16 16:34N 51°19' E 001°39'1111.4
2014-Nov-16 15:34N 51°27' E 001°27'1212.2
2014-Nov-16 14:33N 51°29' E 001°08'1212.4
2014-Nov-16 13:33N 51°28' E 000°48'3 2.7
2014-Nov-16 12:32N 51°26' E 000°44'0 0.0
2014-Nov-16 11:32N 51°26' E 000°44'0 0.0
2014-Nov-16 10:32N 51°26' E 000°44'0 0.0
2014-Nov-16 09:32N 51°26' E 000°44'0 0.0
2014-Nov-16 08:32N 51°26' E 000°44'0 0.0
2014-Nov-16 07:32N 51°26' E 000°44'0 0.0
2014-Nov-16 06:32N 51°26' E 000°44'0 0.0
2014-Nov-16 05:32N 51°26' E 000°44'0 0.0
2014-Nov-16 04:32N 51°26' E 000°44'0 0.0
2014-Nov-16 03:32N 51°26' E 000°44'0 0.0
2014-Nov-16 02:32N 51°26' E 000°44'0 0.0
2014-Nov-16 01:32N 51°26' E 000°44'2 2.5
2014-Nov-16 00:33N 51°28' E 000°47'1010.2
2014-Nov-15 23:33N 51°30' E 001°04'1111.1
2014-Nov-15 22:33N 51°29' E 001°21'6 5.5
2014-Nov-15 21:33N 51°29' E 001°30'2 2.4
2014-Nov-15 20:31N 51°31' E 001°31'0 0.0
2014-Nov-15 19:31N 51°31' E 001°31'0 0.0
2014-Nov-15 18:31N 51°31' E 001°31'0 0.0
2014-Nov-15 17:31N 51°31' E 001°31'0 0.0
2014-Nov-15 16:31N 51°31' E 001°31'0 0.0
2014-Nov-15 15:31N 51°31' E 001°31'0 0.0
2014-Nov-15 14:31N 51°31' E 001°31'0 0.0
2014-Nov-15 13:31N 51°31' E 001°31'0 0.0
2014-Nov-15 12:33N 51°31' E 001°31'2 1.6
2014-Nov-15 11:33N 51°31' E 001°34'1211.8
2014-Nov-15 10:34N 51°31' E 001°53'1212.0
2014-Nov-15 09:34N 51°39' E 002°07'1312.1
2014-Nov-15 08:28N 51°48' E 002°24'7712.8
2014-Nov-15 02:29N 52°47' E 003°44'1313.8
2014-Nov-15 01:33N 52°57' E 003°58'1313.3
2014-Nov-15 00:33N 53°05' E 004°14'2411.9
2014-Nov-14 22:33N 53°26' E 004°35'1111.5
2014-Nov-14 21:33N 53°31' E 004°52'1212.3
2014-Nov-14 20:33N 53°35' E 005°11'1313.4
2014-Nov-14 19:33N 53°40' E 005°33'1414.0
2014-Nov-14 18:34N 53°44' E 005°55'1313.0
2014-Nov-14 17:33N 53°39' E 006°15'1212.3
2014-Nov-14 16:33N 53°36' E 006°35'1414.3
2014-Nov-14 15:33N 53°27' E 006°54'1010.4
2014-Nov-14 14:33N 53°20' E 007°07'2 0.9
2014-Nov-14 12:33N 53°20' E 007°10'0 0.0
2014-Nov-14 11:30N 53°20' E 007°10'0 0.0
2014-Nov-14 10:33N 53°20' E 007°10'0 0.0
2014-Nov-14 09:33N 53°20' E 007°10'0 0.0
2014-Nov-14 08:33N 53°20' E 007°10'0 0.0
2014-Nov-14 07:33N 53°20' E 007°10'0 0.0
2014-Nov-14 06:33N 53°20' E 007°10'0 0.0
2014-Nov-14 05:33N 53°20' E 007°10'  

Dump ship's entire track history